sensor_id;sensor_type;location;lat;lon;timestamp;pressure;altitude;pressure_sealevel;temperature;humidity
4024;BME280;2026;51.002;13.668;2023-06-14T00:02:47;98994.97;;;13.72;74.68
4024;BME280;2026;51.002;13.668;2023-06-14T00:07:50;98994.28;;;13.65;74.61
4024;BME280;2026;51.002;13.668;2023-06-14T00:12:56;98991.44;;;13.55;75.54
4024;BME280;2026;51.002;13.668;2023-06-14T00:18:02;98982.78;;;13.54;75.55
4024;BME280;2026;51.002;13.668;2023-06-14T00:23:05;98991.94;;;13.40;76.45
4024;BME280;2026;51.002;13.668;2023-06-14T00:28:09;98986.78;;;13.33;76.46
4024;BME280;2026;51.002;13.668;2023-06-14T00:33:12;98977.44;;;13.25;76.97
4024;BME280;2026;51.002;13.668;2023-06-14T00:38:17;98980.06;;;13.13;77.79
4024;BME280;2026;51.002;13.668;2023-06-14T00:43:22;98982.91;;;13.00;77.87
4024;BME280;2026;51.002;13.668;2023-06-14T00:48:25;98977.75;;;12.81;79.23
4024;BME280;2026;51.002;13.668;2023-06-14T00:53:28;98981.41;;;12.80;79.02
4024;BME280;2026;51.002;13.668;2023-06-14T00:58:33;98983.47;;;12.78;79.58
4024;BME280;2026;51.002;13.668;2023-06-14T01:03:36;98979.34;;;12.70;79.71
4024;BME280;2026;51.002;13.668;2023-06-14T01:08:47;98980.13;;;12.71;79.65
4024;BME280;2026;51.002;13.668;2023-06-14T01:13:55;98980.94;;;12.71;80.06
4024;BME280;2026;51.002;13.668;2023-06-14T01:18:59;98988.50;;;12.68;79.78
4024;BME280;2026;51.002;13.668;2023-06-14T01:24:05;98976.56;;;12.53;80.31
4024;BME280;2026;51.002;13.668;2023-06-14T01:29:09;98974.28;;;12.57;79.90
4024;BME280;2026;51.002;13.668;2023-06-14T01:34:12;98973.38;;;12.51;80.21
4024;BME280;2026;51.002;13.668;2023-06-14T01:39:17;98965.56;;;12.44;80.79
4024;BME280;2026;51.002;13.668;2023-06-14T01:44:23;98969.47;;;12.42;80.89
4024;BME280;2026;51.002;13.668;2023-06-14T01:49:28;98962.47;;;12.35;81.16
4024;BME280;2026;51.002;13.668;2023-06-14T01:54:32;98956.94;;;12.25;81.24
4024;BME280;2026;51.002;13.668;2023-06-14T01:59:36;98956.88;;;12.01;82.38
4024;BME280;2026;51.002;13.668;2023-06-14T02:04:39;98962.84;;;12.08;81.93
4024;BME280;2026;51.002;13.668;2023-06-14T02:09:43;98967.28;;;11.96;82.26
4024;BME280;2026;51.002;13.668;2023-06-14T02:14:46;98977.38;;;11.80;82.48
4024;BME280;2026;51.002;13.668;2023-06-14T02:19:51;98978.84;;;11.58;83.72
4024;BME280;2026;51.002;13.668;2023-06-14T02:24:55;98980.16;;;11.67;83.47
4024;BME280;2026;51.002;13.668;2023-06-14T02:30:04;98984.69;;;11.60;83.69
4024;BME280;2026;51.002;13.668;2023-06-14T02:35:08;98987.44;;;11.46;84.10
4024;BME280;2026;51.002;13.668;2023-06-14T02:40:13;98983.66;;;11.42;84.48
4024;BME280;2026;51.002;13.668;2023-06-14T02:45:16;98994.19;;;11.35;84.56
4024;BME280;2026;51.002;13.668;2023-06-14T02:50:20;98995.28;;;11.27;85.06
4024;BME280;2026;51.002;13.668;2023-06-14T02:55:26;98995.72;;;11.24;85.63
4024;BME280;2026;51.002;13.668;2023-06-14T03:00:30;98994.47;;;11.27;85.77
4024;BME280;2026;51.002;13.668;2023-06-14T03:05:33;98998.19;;;11.38;85.04
4024;BME280;2026;51.002;13.668;2023-06-14T03:10:37;98981.59;;;11.25;85.19
4024;BME280;2026;51.002;13.668;2023-06-14T03:15:41;98989.59;;;11.31;85.02
4024;BME280;2026;51.002;13.668;2023-06-14T03:20:45;98984.78;;;11.27;85.27
4024;BME280;2026;51.002;13.668;2023-06-14T03:25:49;98995.56;;;11.45;84.53
4024;BME280;2026;51.002;13.668;2023-06-14T03:30:53;99004.81;;;11.47;84.70
4024;BME280;2026;51.002;13.668;2023-06-14T03:35:57;99011.50;;;11.62;84.82
4024;BME280;2026;51.002;13.668;2023-06-14T03:41:03;99010.41;;;11.88;83.44
4024;BME280;2026;51.002;13.668;2023-06-14T03:46:07;99020.28;;;12.23;81.67
4024;BME280;2026;51.002;13.668;2023-06-14T03:51:10;99027.00;;;14.68;72.32
4024;BME280;2026;51.002;13.668;2023-06-14T03:56:15;99032.81;;;15.22;69.46
4024;BME280;2026;51.002;13.668;2023-06-14T04:01:18;99042.28;;;15.57;69.22
4024;BME280;2026;51.002;13.668;2023-06-14T04:06:21;99050.09;;;16.69;65.36
4024;BME280;2026;51.002;13.668;2023-06-14T04:11:28;99055.28;;;15.42;68.80
4024;BME280;2026;51.002;13.668;2023-06-14T04:16:32;99056.22;;;15.30;69.38
4024;BME280;2026;51.002;13.668;2023-06-14T04:21:35;99050.59;;;17.31;62.85
4024;BME280;2026;51.002;13.668;2023-06-14T04:26:41;99068.38;;;17.99;60.65
4024;BME280;2026;51.002;13.668;2023-06-14T04:31:48;99060.22;;;18.06;60.28
4024;BME280;2026;51.002;13.668;2023-06-14T04:36:51;99052.88;;;18.76;58.82
4024;BME280;2026;51.002;13.668;2023-06-14T04:42:03;99056.88;;;19.15;57.28
4024;BME280;2026;51.002;13.668;2023-06-14T04:47:09;99059.00;;;18.81;57.21
4024;BME280;2026;51.002;13.668;2023-06-14T04:52:14;99063.50;;;18.91;57.01
4024;BME280;2026;51.002;13.668;2023-06-14T04:57:21;99073.56;;;19.46;56.48
4024;BME280;2026;51.002;13.668;2023-06-14T05:02:27;99079.81;;;17.47;61.59
4024;BME280;2026;51.002;13.668;2023-06-14T05:07:33;99083.19;;;19.21;57.56
4024;BME280;2026;51.002;13.668;2023-06-14T05:12:38;99089.06;;;20.05;55.62
4024;BME280;2026;51.002;13.668;2023-06-14T05:17:43;99082.75;;;20.41;53.97
4024;BME280;2026;51.002;13.668;2023-06-14T05:22:46;99090.00;;;19.64;55.79
4024;BME280;2026;51.002;13.668;2023-06-14T05:27:53;99090.91;;;20.10;53.30
4024;BME280;2026;51.002;13.668;2023-06-14T05:32:56;99088.81;;;20.01;54.83
4024;BME280;2026;51.002;13.668;2023-06-14T05:37:59;99091.47;;;19.96;54.74
4024;BME280;2026;51.002;13.668;2023-06-14T05:43:04;99095.94;;;20.62;52.60
4024;BME280;2026;51.002;13.668;2023-06-14T05:48:07;99092.06;;;20.43;53.56
4024;BME280;2026;51.002;13.668;2023-06-14T05:53:10;99097.47;;;19.57;55.74
4024;BME280;2026;51.002;13.668;2023-06-14T05:58:14;99108.66;;;20.25;53.47
4024;BME280;2026;51.002;13.668;2023-06-14T06:03:17;99101.44;;;19.59;55.26
4024;BME280;2026;51.002;13.668;2023-06-14T06:08:20;99098.53;;;19.61;55.72
4024;BME280;2026;51.002;13.668;2023-06-14T06:13:24;99099.81;;;20.40;53.21
4024;BME280;2026;51.002;13.668;2023-06-14T06:18:27;99115.59;;;18.98;56.87
4024;BME280;2026;51.002;13.668;2023-06-14T06:23:30;99113.53;;;20.07;55.12
4024;BME280;2026;51.002;13.668;2023-06-14T06:28:35;99119.59;;;19.05;57.13
4024;BME280;2026;51.002;13.668;2023-06-14T06:33:38;99134.06;;;18.30;59.01
4024;BME280;2026;51.002;13.668;2023-06-14T06:38:41;99138.09;;;19.78;54.74
4024;BME280;2026;51.002;13.668;2023-06-14T06:43:45;99136.31;;;19.53;57.69
4024;BME280;2026;51.002;13.668;2023-06-14T06:48:51;99140.31;;;18.03;60.85
4024;BME280;2026;51.002;13.668;2023-06-14T06:53:54;99140.84;;;19.26;58.40
4024;BME280;2026;51.002;13.668;2023-06-14T06:58:59;99148.16;;;17.39;61.59
4024;BME280;2026;51.002;13.668;2023-06-14T07:04:02;99135.25;;;19.38;58.98
4024;BME280;2026;51.002;13.668;2023-06-14T07:09:05;99134.94;;;21.22;52.73
4024;BME280;2026;51.002;13.668;2023-06-14T07:14:11;99137.50;;;21.62;50.24
4024;BME280;2026;51.002;13.668;2023-06-14T07:19:14;99141.66;;;21.98;50.59
4024;BME280;2026;51.002;13.668;2023-06-14T07:24:17;99143.56;;;20.73;50.94
4024;BME280;2026;51.002;13.668;2023-06-14T07:29:24;99131.47;;;22.62;47.39
4024;BME280;2026;51.002;13.668;2023-06-14T07:34:28;99142.66;;;22.45;50.69
4024;BME280;2026;51.002;13.668;2023-06-14T07:39:31;99141.22;;;23.25;45.81
4024;BME280;2026;51.002;13.668;2023-06-14T07:44:35;99142.41;;;23.80;44.05
4024;BME280;2026;51.002;13.668;2023-06-14T07:49:38;99155.38;;;23.86;42.95
4024;BME280;2026;51.002;13.668;2023-06-14T07:54:41;99158.75;;;21.96;46.41
4024;BME280;2026;51.002;13.668;2023-06-14T07:59:45;99154.34;;;18.67;54.28
4024;BME280;2026;51.002;13.668;2023-06-14T08:04:48;99155.69;;;20.90;51.20
4024;BME280;2026;51.002;13.668;2023-06-14T08:09:51;99156.72;;;21.88;46.88
4024;BME280;2026;51.002;13.668;2023-06-14T08:14:55;99154.09;;;21.24;48.82
4024;BME280;2026;51.002;13.668;2023-06-14T08:20:13;99153.06;;;22.03;46.08
4024;BME280;2026;51.002;13.668;2023-06-14T08:25:17;99168.16;;;21.64;44.56
4024;BME280;2026;51.002;13.668;2023-06-14T08:30:22;99150.44;;;22.99;43.81
4024;BME280;2026;51.002;13.668;2023-06-14T08:35:25;99155.44;;;21.56;45.64
4024;BME280;2026;51.002;13.668;2023-06-14T08:40:29;99147.19;;;22.64;43.42
4024;BME280;2026;51.002;13.668;2023-06-14T08:45:34;99156.44;;;22.53;41.60
4024;BME280;2026;51.002;13.668;2023-06-14T08:50:39;99141.78;;;21.33;44.03
4024;BME280;2026;51.002;13.668;2023-06-14T08:55:43;99137.56;;;23.35;40.07
4024;BME280;2026;51.002;13.668;2023-06-14T09:00:48;99137.09;;;22.42;43.57
4024;BME280;2026;51.002;13.668;2023-06-14T09:05:54;99152.91;;;22.38;41.11
4024;BME280;2026;51.002;13.668;2023-06-14T09:10:57;99161.16;;;22.61;42.85
4024;BME280;2026;51.002;13.668;2023-06-14T09:16:03;99161.09;;;22.85;41.54
4024;BME280;2026;51.002;13.668;2023-06-14T09:21:07;99163.09;;;23.13;39.97
4024;BME280;2026;51.002;13.668;2023-06-14T09:26:11;99162.13;;;23.70;41.28
4024;BME280;2026;51.002;13.668;2023-06-14T09:31:17;99161.84;;;22.47;39.59
4024;BME280;2026;51.002;13.668;2023-06-14T09:36:22;99152.44;;;22.74;39.30
4024;BME280;2026;51.002;13.668;2023-06-14T09:41:31;99164.88;;;21.97;41.08
4024;BME280;2026;51.002;13.668;2023-06-14T09:46:37;99162.16;;;22.27;40.24
4024;BME280;2026;51.002;13.668;2023-06-14T09:51:43;99160.53;;;21.77;43.31
4024;BME280;2026;51.002;13.668;2023-06-14T09:56:47;99158.47;;;21.98;40.43
4024;BME280;2026;51.002;13.668;2023-06-14T10:01:55;99159.78;;;22.01;40.99
4024;BME280;2026;51.002;13.668;2023-06-14T10:07:01;99147.13;;;22.31;39.48
4024;BME280;2026;51.002;13.668;2023-06-14T10:12:05;99145.22;;;20.59;44.11
4024;BME280;2026;51.002;13.668;2023-06-14T10:17:12;99146.56;;;21.31;42.85
4024;BME280;2026;51.002;13.668;2023-06-14T10:22:24;99146.00;;;22.75;41.94
4024;BME280;2026;51.002;13.668;2023-06-14T10:27:28;99150.19;;;22.00;42.40
4024;BME280;2026;51.002;13.668;2023-06-14T10:32:34;99154.59;;;21.61;45.25
4024;BME280;2026;51.002;13.668;2023-06-14T10:37:37;99142.84;;;21.32;44.93
4024;BME280;2026;51.002;13.668;2023-06-14T10:42:51;99155.00;;;21.98;44.31
4024;BME280;2026;51.002;13.668;2023-06-14T10:47:57;99148.19;;;21.86;44.04
4024;BME280;2026;51.002;13.668;2023-06-14T10:53:00;99138.03;;;22.32;42.94
4024;BME280;2026;51.002;13.668;2023-06-14T10:58:03;99136.09;;;22.37;43.42
4024;BME280;2026;51.002;13.668;2023-06-14T11:09:12;99141.72;;;21.09;47.71
4024;BME280;2026;51.002;13.668;2023-06-14T11:14:21;99136.47;;;21.28;46.46
4024;BME280;2026;51.002;13.668;2023-06-14T11:19:24;99131.59;;;22.33;46.00
4024;BME280;2026;51.002;13.668;2023-06-14T11:24:33;99119.16;;;23.00;42.61
4024;BME280;2026;51.002;13.668;2023-06-14T11:29:36;99129.25;;;20.59;48.08
4024;BME280;2026;51.002;13.668;2023-06-14T11:34:39;99126.34;;;21.84;46.49
4024;BME280;2026;51.002;13.668;2023-06-14T11:39:44;99136.50;;;20.88;48.47
4024;BME280;2026;51.002;13.668;2023-06-14T11:44:49;99126.59;;;20.99;49.06
4024;BME280;2026;51.002;13.668;2023-06-14T11:49:52;99127.91;;;21.31;48.21
4024;BME280;2026;51.002;13.668;2023-06-14T11:54:56;99137.81;;;20.96;49.96
4024;BME280;2026;51.002;13.668;2023-06-14T12:00:00;99120.72;;;20.07;52.15
4024;BME280;2026;51.002;13.668;2023-06-14T12:05:29;99120.19;;;20.04;52.93
4024;BME280;2026;51.002;13.668;2023-06-14T12:10:39;99127.63;;;21.03;51.63
4024;BME280;2026;51.002;13.668;2023-06-14T12:15:42;99132.19;;;20.57;52.48
4024;BME280;2026;51.002;13.668;2023-06-14T12:20:48;99132.75;;;20.54;53.38
4024;BME280;2026;51.002;13.668;2023-06-14T12:25:53;99129.13;;;21.14;51.67
4024;BME280;2026;51.002;13.668;2023-06-14T12:30:57;99133.25;;;21.31;52.73
4024;BME280;2026;51.002;13.668;2023-06-14T12:36:03;99126.00;;;21.37;51.84
4024;BME280;2026;51.002;13.668;2023-06-14T12:41:08;99120.13;;;21.05;53.14
4024;BME280;2026;51.002;13.668;2023-06-14T12:46:11;99124.13;;;20.68;52.76
4024;BME280;2026;51.002;13.668;2023-06-14T12:51:14;99125.91;;;20.83;53.16
4024;BME280;2026;51.002;13.668;2023-06-14T12:56:19;99125.63;;;21.19;52.11
4024;BME280;2026;51.002;13.668;2023-06-14T13:01:25;99117.88;;;22.20;50.20
4024;BME280;2026;51.002;13.668;2023-06-14T13:06:28;99122.41;;;21.76;50.59
4024;BME280;2026;51.002;13.668;2023-06-14T13:11:34;99097.81;;;22.61;48.72
4024;BME280;2026;51.002;13.668;2023-06-14T13:16:37;99096.31;;;22.36;47.02
4024;BME280;2026;51.002;13.668;2023-06-14T13:21:40;99108.63;;;21.39;50.17
4024;BME280;2026;51.002;13.668;2023-06-14T13:26:45;99098.31;;;20.63;52.87
4024;BME280;2026;51.002;13.668;2023-06-14T13:31:48;99106.63;;;20.96;53.36
4024;BME280;2026;51.002;13.668;2023-06-14T13:36:51;99110.78;;;20.68;53.40
4024;BME280;2026;51.002;13.668;2023-06-14T13:41:55;99082.06;;;22.79;48.67
4024;BME280;2026;51.002;13.668;2023-06-14T13:46:58;99086.91;;;22.58;47.99
4024;BME280;2026;51.002;13.668;2023-06-14T13:52:07;99091.63;;;21.60;49.69
4024;BME280;2026;51.002;13.668;2023-06-14T13:57:12;99099.91;;;20.24;53.51
4024;BME280;2026;51.002;13.668;2023-06-14T14:02:15;99109.13;;;20.42;53.12
4024;BME280;2026;51.002;13.668;2023-06-14T14:07:18;99089.28;;;21.77;49.16
4024;BME280;2026;51.002;13.668;2023-06-14T14:12:23;99076.00;;;23.21;47.40
4024;BME280;2026;51.002;13.668;2023-06-14T14:17:27;99074.09;;;24.33;45.74
4024;BME280;2026;51.002;13.668;2023-06-14T14:22:31;99065.25;;;24.33;43.66
4024;BME280;2026;51.002;13.668;2023-06-14T14:27:36;99075.47;;;23.52;44.80
4024;BME280;2026;51.002;13.668;2023-06-14T14:32:39;99083.44;;;22.00;46.82
4024;BME280;2026;51.002;13.668;2023-06-14T14:37:42;99081.84;;;21.99;47.05
4024;BME280;2026;51.002;13.668;2023-06-14T14:42:46;99084.72;;;21.05;49.67
4024;BME280;2026;51.002;13.668;2023-06-14T14:47:49;99072.81;;;22.52;47.22
4024;BME280;2026;51.002;13.668;2023-06-14T14:52:56;99070.16;;;22.33;46.75
4024;BME280;2026;51.002;13.668;2023-06-14T14:58:01;99064.19;;;22.94;44.58
4024;BME280;2026;51.002;13.668;2023-06-14T15:03:04;99068.28;;;23.19;45.14
4024;BME280;2026;51.002;13.668;2023-06-14T15:08:07;99071.53;;;21.67;44.85
4024;BME280;2026;51.002;13.668;2023-06-14T15:13:15;99064.56;;;21.72;43.39
4024;BME280;2026;51.002;13.668;2023-06-14T15:18:18;99058.31;;;22.01;41.83
4024;BME280;2026;51.002;13.668;2023-06-14T15:23:22;99063.38;;;21.78;41.19
4024;BME280;2026;51.002;13.668;2023-06-14T15:28:26;99060.22;;;23.52;41.83
4024;BME280;2026;51.002;13.668;2023-06-14T15:33:30;99059.28;;;23.85;38.75
4024;BME280;2026;51.002;13.668;2023-06-14T15:38:33;99065.97;;;24.10;38.63
4024;BME280;2026;51.002;13.668;2023-06-14T15:43:37;99068.06;;;21.91;43.84
4024;BME280;2026;51.002;13.668;2023-06-14T15:48:40;99074.94;;;21.98;40.96
4024;BME280;2026;51.002;13.668;2023-06-14T15:53:44;99053.06;;;22.53;40.70
4024;BME280;2026;51.002;13.668;2023-06-14T15:58:48;99066.25;;;22.83;40.66
4024;BME280;2026;51.002;13.668;2023-06-14T16:03:53;99078.00;;;21.37;43.57
4024;BME280;2026;51.002;13.668;2023-06-14T16:08:57;99064.31;;;20.84;45.27
4024;BME280;2026;51.002;13.668;2023-06-14T16:14:02;99062.09;;;21.26;43.56
4024;BME280;2026;51.002;13.668;2023-06-14T16:19:05;99057.72;;;21.60;43.67
4024;BME280;2026;51.002;13.668;2023-06-14T16:24:09;99062.91;;;21.27;44.35
4024;BME280;2026;51.002;13.668;2023-06-14T16:29:14;99048.59;;;22.29;41.93
4024;BME280;2026;51.002;13.668;2023-06-14T16:34:17;99054.13;;;22.71;39.84
4024;BME280;2026;51.002;13.668;2023-06-14T16:39:20;99053.41;;;22.46;38.01
4024;BME280;2026;51.002;13.668;2023-06-14T16:44:24;99054.06;;;22.57;38.18
4024;BME280;2026;51.002;13.668;2023-06-14T16:49:27;99061.13;;;22.67;39.13
4024;BME280;2026;51.002;13.668;2023-06-14T16:54:30;99065.81;;;22.75;38.34
4024;BME280;2026;51.002;13.668;2023-06-14T16:59:35;99070.84;;;23.10;38.00
4024;BME280;2026;51.002;13.668;2023-06-14T17:04:38;99072.63;;;22.10;38.92
4024;BME280;2026;51.002;13.668;2023-06-14T17:09:41;99073.81;;;22.23;37.47
4024;BME280;2026;51.002;13.668;2023-06-14T17:14:45;99082.50;;;21.90;39.21
4024;BME280;2026;51.002;13.668;2023-06-14T17:19:52;99085.38;;;21.69;40.42
4024;BME280;2026;51.002;13.668;2023-06-14T17:24:55;99082.00;;;22.07;40.62
4024;BME280;2026;51.002;13.668;2023-06-14T17:29:59;99087.84;;;22.09;39.93
4024;BME280;2026;51.002;13.668;2023-06-14T17:35:03;99102.22;;;21.94;41.57
4024;BME280;2026;51.002;13.668;2023-06-14T17:40:07;99086.75;;;21.91;39.72
4024;BME280;2026;51.002;13.668;2023-06-14T17:45:11;99095.72;;;21.52;40.70
4024;BME280;2026;51.002;13.668;2023-06-14T17:50:14;99090.03;;;21.59;41.76
4024;BME280;2026;51.002;13.668;2023-06-14T17:55:18;99093.94;;;21.42;41.78
4024;BME280;2026;51.002;13.668;2023-06-14T18:00:23;99090.50;;;21.41;42.48
4024;BME280;2026;51.002;13.668;2023-06-14T18:05:26;99102.28;;;21.35;43.32
4024;BME280;2026;51.002;13.668;2023-06-14T18:10:29;99101.69;;;21.14;44.40
4024;BME280;2026;51.002;13.668;2023-06-14T18:15:33;99104.16;;;21.05;44.88
4024;BME280;2026;51.002;13.668;2023-06-14T18:20:36;99105.41;;;20.78;47.77
4024;BME280;2026;51.002;13.668;2023-06-14T18:25:39;99116.44;;;20.61;49.13
4024;BME280;2026;51.002;13.668;2023-06-14T18:30:44;99113.81;;;20.56;46.53
4024;BME280;2026;51.002;13.668;2023-06-14T18:35:47;99116.47;;;20.56;47.32
4024;BME280;2026;51.002;13.668;2023-06-14T18:40:50;99120.81;;;20.41;48.40
4024;BME280;2026;51.002;13.668;2023-06-14T18:45:54;99122.75;;;20.30;48.18
4024;BME280;2026;51.002;13.668;2023-06-14T18:50:57;99121.16;;;20.29;48.78
4024;BME280;2026;51.002;13.668;2023-06-14T18:56:00;99124.13;;;20.23;49.87
4024;BME280;2026;51.002;13.668;2023-06-14T19:01:05;99128.97;;;20.10;51.08
4024;BME280;2026;51.002;13.668;2023-06-14T19:06:08;99127.69;;;19.82;52.65
4024;BME280;2026;51.002;13.668;2023-06-14T19:11:11;99134.16;;;19.60;53.90
4024;BME280;2026;51.002;13.668;2023-06-14T19:16:16;99141.09;;;19.45;54.77
4024;BME280;2026;51.002;13.668;2023-06-14T19:21:19;99137.91;;;19.33;55.47
4024;BME280;2026;51.002;13.668;2023-06-14T19:26:22;99134.72;;;19.26;55.82
4024;BME280;2026;51.002;13.668;2023-06-14T19:31:28;99142.97;;;19.08;57.12
4024;BME280;2026;51.002;13.668;2023-06-14T19:36:31;99137.91;;;18.91;57.77
4024;BME280;2026;51.002;13.668;2023-06-14T19:41:34;99150.34;;;18.75;58.38
4024;BME280;2026;51.002;13.668;2023-06-14T19:46:38;99150.63;;;18.68;59.04
4024;BME280;2026;51.002;13.668;2023-06-14T19:51:41;99152.94;;;18.39;60.83
4024;BME280;2026;51.002;13.668;2023-06-14T19:56:44;99160.59;;;18.30;61.23
4024;BME280;2026;51.002;13.668;2023-06-14T20:01:49;99164.81;;;18.21;61.78
4024;BME280;2026;51.002;13.668;2023-06-14T20:06:52;99167.69;;;18.14;62.46
4024;BME280;2026;51.002;13.668;2023-06-14T20:11:59;99180.38;;;18.02;62.74
4024;BME280;2026;51.002;13.668;2023-06-14T20:17:04;99174.44;;;17.89;63.43
4024;BME280;2026;51.002;13.668;2023-06-14T20:22:07;99184.75;;;17.80;63.89
4024;BME280;2026;51.002;13.668;2023-06-14T20:27:10;99184.38;;;17.66;64.20
4024;BME280;2026;51.002;13.668;2023-06-14T20:32:15;99188.84;;;17.61;64.42
4024;BME280;2026;51.002;13.668;2023-06-14T20:37:18;99184.16;;;17.35;65.53
4024;BME280;2026;51.002;13.668;2023-06-14T20:42:21;99181.84;;;17.44;65.17
4024;BME280;2026;51.002;13.668;2023-06-14T20:47:32;99185.00;;;16.86;68.43
4024;BME280;2026;51.002;13.668;2023-06-14T20:52:35;99190.06;;;16.87;68.39
4024;BME280;2026;51.002;13.668;2023-06-14T20:57:38;99177.81;;;16.81;68.77
4024;BME280;2026;51.002;13.668;2023-06-14T21:02:43;99185.47;;;16.77;68.82
4024;BME280;2026;51.002;13.668;2023-06-14T21:07:46;99175.16;;;16.54;69.39
4024;BME280;2026;51.002;13.668;2023-06-14T21:12:50;99177.25;;;16.52;69.39
4024;BME280;2026;51.002;13.668;2023-06-14T21:17:57;99184.19;;;16.35;70.50
4024;BME280;2026;51.002;13.668;2023-06-14T21:23:00;99181.19;;;16.27;70.73
4024;BME280;2026;51.002;13.668;2023-06-14T21:28:03;99181.00;;;16.11;71.57
4024;BME280;2026;51.002;13.668;2023-06-14T21:33:09;99185.06;;;15.79;72.86
4024;BME280;2026;51.002;13.668;2023-06-14T21:38:12;99186.50;;;15.87;72.39
4024;BME280;2026;51.002;13.668;2023-06-14T21:43:15;99189.00;;;15.77;73.22
4024;BME280;2026;51.002;13.668;2023-06-14T21:48:19;99180.34;;;15.64;73.29
4024;BME280;2026;51.002;13.668;2023-06-14T21:53:22;99177.78;;;15.52;73.71
4024;BME280;2026;51.002;13.668;2023-06-14T21:58:25;99176.41;;;15.50;74.05
4024;BME280;2026;51.002;13.668;2023-06-14T22:03:29;99176.34;;;14.81;77.97
4024;BME280;2026;51.002;13.668;2023-06-14T22:08:34;99173.13;;;15.08;75.79
4024;BME280;2026;51.002;13.668;2023-06-14T22:13:38;99174.97;;;15.08;76.03
4024;BME280;2026;51.002;13.668;2023-06-14T22:18:43;99172.75;;;14.88;77.05
4024;BME280;2026;51.002;13.668;2023-06-14T22:23:47;99183.25;;;14.29;80.32
4024;BME280;2026;51.002;13.668;2023-06-14T22:28:50;99188.97;;;14.50;78.69
4024;BME280;2026;51.002;13.668;2023-06-14T22:33:55;99192.63;;;14.49;78.67
4024;BME280;2026;51.002;13.668;2023-06-14T22:38:58;99189.53;;;14.52;78.26
4024;BME280;2026;51.002;13.668;2023-06-14T22:44:04;99188.25;;;14.43;78.86
4024;BME280;2026;51.002;13.668;2023-06-14T22:49:09;99183.94;;;14.37;78.63
4024;BME280;2026;51.002;13.668;2023-06-14T22:54:13;99182.44;;;14.29;79.20
4024;BME280;2026;51.002;13.668;2023-06-14T22:59:16;99173.88;;;14.10;79.60
4024;BME280;2026;51.002;13.668;2023-06-14T23:04:21;99179.16;;;14.10;79.97
4024;BME280;2026;51.002;13.668;2023-06-14T23:09:24;99190.19;;;14.07;79.89
4024;BME280;2026;51.002;13.668;2023-06-14T23:14:27;99187.44;;;13.89;81.03
4024;BME280;2026;51.002;13.668;2023-06-14T23:19:33;99187.66;;;13.88;80.78
4024;BME280;2026;51.002;13.668;2023-06-14T23:24:37;99192.91;;;13.88;80.95
4024;BME280;2026;51.002;13.668;2023-06-14T23:29:42;99189.94;;;13.72;81.23
4024;BME280;2026;51.002;13.668;2023-06-14T23:34:48;99181.00;;;13.73;81.39
4024;BME280;2026;51.002;13.668;2023-06-14T23:39:51;99186.28;;;13.73;80.42
4024;BME280;2026;51.002;13.668;2023-06-14T23:44:56;99175.63;;;13.80;80.14
4024;BME280;2026;51.002;13.668;2023-06-14T23:50:05;99181.00;;;13.73;80.35
4024;BME280;2026;51.002;13.668;2023-06-14T23:55:09;99188.78;;;13.44;81.95
